Terminal Aerodrome Forecast
Issued by NWS

Home | Current Version | Previous Version | Text Only | Print | Product List | Glossary On
Versions: 1 2 3 4 5 6 7 8 9 10 11 12 13 14 15
000
FTPA31 PHFO 251739
TAFHMK
TAF
PHMK 251739Z 2518/2618 05006KT P6SM FEW020 SCT060
     FM252000 04011KT P6SM VCSH SCT020 BKN060
      TEMPO 2522/2602 4SM SHRA BR BKN020
     FM260600 03005KT P6SM FEW020 SCT060=

USA.gov is the U.S. government's official web portal to all federal, state and local government web resources and services.